LEZG Airport Information

Runway Information
Runway 12R Length 12198 ft width 148 ft
Elevation 834 ft Threshold ft Heading 120
Runway 30L Length 12198 ft Width 148 ft
Elevation 863 ft Threshold ft Heading 300
Runway 12L Length 9843 ft width 148 ft
Elevation 823 ft Threshold ft Heading 120
Runway 30R Length 9843 ft Width 148 ft
Elevation 834 ft Threshold ft Heading 300
Airport Frequencies
Type APP Name APP Frequency 119.3 MHZ
Type GND Name GND Frequency 118.1 MHZ
Type TWR Name TWR Frequency 118.1 MHZ
Airport Navaids
Type VOR-DME Name Zaragoza Frequency 113000 KHZ
Type NDB Name Zaragoza Frequency 389 KHZ
Type TACAN Name Zaragoza Frequency 133700 KHZ
Type NDB Name Zaragoza Frequency 348 KHZ
Airport Weather Information & NOTAM
ADDS - METARS form results

(2158 UTC 05 October 2022)
Data provider http://aviationweather.gov/metar/data/
 
METAR text: LEZG 052130Z 10006KT CAVOK 21/15 Q1025
Conditions at: LEZG (ZARAGOZA (MIL/CI, ES) observed 2130 UTC 05 October 2022
Temperature: 21.0°C (70°F)
Dewpoint: 15.0°C (59°F) [RH = 69%]
Pressure (altimeter): 30.27 inches Hg (1025.0 mb)
Winds: from the E (100 degrees) at 7 MPH (6 knots; 3.1 m/s)
Visibility: 6 or more miles (10+ km)
Ceiling: ceiling and visibility are OK
Clouds: unknown
Weather: no significant weather observed at this time

METAR text: LEZG 052100Z 10005KT CAVOK 21/14 Q1025
Conditions at: LEZG (ZARAGOZA (MIL/CI, ES) observed 2100 UTC 05 October 2022
Temperature: 21.0°C (70°F)
Dewpoint: 14.0°C (57°F) [RH = 64%]
Pressure (altimeter): 30.27 inches Hg (1025.0 mb)
Winds: from the E (100 degrees) at 6 MPH (5 knots; 2.6 m/s)
Visibility: 6 or more miles (10+ km)
Ceiling: ceiling and visibility are OK
Clouds: unknown
Weather: no significant weather observed at this time

Forecast for: AMD
Text: TAF AMD LEZG 051900Z 0519/0618 11009KT 9999 FEW015 TX27/0614Z TN16/0605Z
Forecast period: 1900 to 2000 UTC 05 October 2022
Forecast type: FROM: standard forecast or significant change
Winds: from the ESE (110 degrees) at 10 MPH (9 knots; 4.6 m/s)
Visibility: 6 or more miles (10+ km)
Ceiling: at least 12,000 feet AGL
Clouds: few clouds at 1500 feet AGL
Weather: no significant weather forecast for this period
Text: BECMG 0520/0523 32009KT
Forecast period: 2000 UTC 05 October 2022 to 1800 UTC 06 October 2022
Forecast type: BECOMING: Conditions expected to become as follows by 2300 UTC 05 October 2022
Winds: from the NW (320 degrees) at 10 MPH (9 knots; 4.6 m/s)
Visibility: 6 or more miles (10+ km)
Ceiling: at least 12,000 feet AGL
Clouds: few clouds at 1500 feet AGL
Weather: no significant weather forecast for this period
Text: TEMPO 0523/0608 BKN025
Forecast period: 2300 UTC 05 October 2022 to 0800 UTC 06 October 2022
Forecast type: TEMPORARY: The following changes expected for less than half the time period
Visibility: missing
Ceiling: 2500 feet AGL
Clouds: broken clouds at 2500 feet AGL
Weather: no significant weather forecast for this period